createdAt,value
2023-03-23T15:57:58.866Z,2.80
2023-03-23T16:00:28.526Z,2.60
2023-03-23T16:03:03.227Z,2.47
2023-03-23T16:05:30.543Z,2.53
2023-03-23T16:07:58.108Z,2.40
2023-03-23T16:10:26.946Z,2.03
2023-03-23T16:12:54.112Z,2.10
2023-03-23T16:15:21.405Z,2.35
2023-03-23T16:17:48.742Z,2.63
2023-03-23T16:20:19.624Z,2.58
2023-03-23T16:22:47.953Z,2.22
2023-03-23T16:25:15.977Z,2.65
2023-03-23T16:27:44.076Z,2.72
2023-03-23T16:30:19.160Z,3.03
2023-03-23T16:32:47.119Z,2.33
2023-03-23T16:35:15.691Z,2.60
2023-03-23T16:37:52.122Z,2.43
2023-03-23T16:40:36.930Z,2.53
2023-03-23T16:43:08.993Z,3.10
2023-03-23T16:45:38.620Z,3.58
2023-03-23T16:48:07.894Z,2.85
2023-03-23T16:50:36.615Z,2.90
2023-03-23T16:53:05.848Z,2.85
2023-03-23T16:55:33.338Z,3.25
2023-03-23T16:58:15.345Z,3.07
2023-03-23T17:00:49.057Z,2.88
2023-03-23T17:03:18.454Z,3.53
2023-03-23T17:05:48.180Z,2.35
2023-03-23T17:08:16.192Z,3.35
2023-03-23T17:10:44.065Z,3.10
2023-03-23T17:13:11.332Z,3.03
2023-03-23T17:15:42.121Z,3.38
2023-03-23T17:18:10.379Z,3.30
2023-03-23T17:20:37.617Z,2.60
2023-03-23T17:23:05.503Z,3.17
2023-03-23T17:25:33.068Z,3.03
2023-03-23T17:28:05.456Z,3.40
2023-03-23T17:30:35.384Z,3.80
2023-03-23T17:33:02.881Z,2.75
2023-03-23T17:35:30.048Z,3.65
2023-03-23T17:37:57.078Z,3.03
2023-03-23T17:40:24.134Z,3.97
2023-03-23T17:42:51.147Z,3.60
2023-03-23T17:45:18.371Z,3.15
2023-03-23T17:47:45.446Z,3.10
2023-03-23T17:50:13.464Z,3.33
2023-03-23T17:52:41.646Z,3.92
2023-03-23T17:55:08.830Z,3.78
2023-03-23T17:57:36.326Z,3.75
2023-03-23T18:00:07.896Z,3.63
2023-03-23T18:02:36.830Z,3.80
2023-03-23T18:05:04.431Z,3.90
2023-03-23T18:07:31.474Z,4.27
2023-03-23T18:10:00.926Z,4.33
2023-03-23T18:12:28.189Z,3.77
2023-03-23T18:14:59.004Z,4.40
2023-03-23T18:17:26.861Z,4.80
2023-03-23T18:19:54.445Z,3.90
2023-03-23T18:22:21.949Z,4.10
2023-03-23T18:24:49.250Z,4.30
2023-03-23T18:27:17.315Z,4.00
2023-03-23T18:29:44.351Z,3.93
2023-03-23T18:32:11.370Z,4.20
2023-03-23T18:34:41.944Z,3.83
2023-03-23T18:37:09.279Z,3.87
2023-03-23T18:39:38.020Z,3.80
2023-03-23T18:42:06.226Z,4.50
2023-03-23T18:44:33.546Z,3.67
2023-03-23T18:47:00.856Z,3.97
2023-03-23T18:49:29.023Z,4.50
2023-03-23T18:51:56.287Z,4.20
2023-03-23T18:54:23.245Z,4.07
2023-03-23T18:56:50.307Z,3.70
2023-03-23T18:59:17.412Z,3.70
2023-03-23T19:01:44.419Z,3.70
2023-03-23T19:04:14.570Z,3.80
2023-03-23T19:06:41.572Z,3.37
2023-03-23T19:09:09.030Z,3.70
2023-03-23T19:11:36.137Z,3.63
2023-03-23T19:14:03.748Z,4.27
2023-03-23T19:16:38.251Z,3.87
2023-03-23T19:19:08.287Z,3.70
2023-03-23T19:21:37.610Z,3.60
2023-03-23T19:24:06.530Z,3.63
2023-03-23T19:26:40.400Z,4.17
2023-03-23T19:31:46.172Z,3.80
2023-03-23T19:34:15.509Z,3.60
2023-03-23T19:36:48.184Z,4.10
2023-03-23T19:39:22.057Z,4.00
2023-03-23T19:41:50.927Z,3.60
2023-03-23T19:44:18.348Z,3.10
2023-03-23T19:46:45.652Z,3.37
2023-03-23T19:49:12.870Z,3.60
2023-03-23T19:51:41.100Z,2.87
2023-03-23T19:54:08.902Z,3.20
2023-03-23T19:56:36.233Z,3.57
2023-03-23T19:59:03.632Z,3.30
2023-03-23T20:01:31.503Z,3.17
2023-03-23T20:04:00.327Z,3.30
2023-03-23T20:06:29.312Z,3.20
2023-03-23T20:09:00.201Z,3.00
2023-03-23T20:11:28.962Z,3.03
2023-03-23T20:13:56.776Z,2.80
2023-03-23T20:16:25.335Z,3.13
2023-03-23T20:18:53.512Z,2.60
2023-03-23T20:21:23.046Z,3.07
2023-03-23T20:23:53.038Z,2.80
2023-03-23T20:26:38.894Z,3.13
2023-03-23T20:29:07.974Z,3.30
2023-03-23T20:31:38.716Z,3.10
2023-03-23T20:34:11.451Z,3.37
2023-03-23T20:36:42.952Z,3.50
2023-03-23T20:39:21.574Z,3.30
2023-03-23T20:41:54.561Z,3.20
2023-03-23T20:44:25.202Z,2.97
2023-03-23T20:46:53.700Z,3.70
2023-03-23T20:49:22.053Z,3.10
2023-03-23T20:51:50.718Z,3.00
2023-03-23T20:54:19.694Z,3.30
2023-03-23T20:56:48.140Z,2.87
2023-03-23T20:59:16.534Z,3.13
2023-03-23T21:01:44.834Z,2.70
2023-03-23T21:04:18.746Z,2.90
2023-03-23T21:06:49.066Z,2.80
2023-03-23T21:09:17.970Z,3.37
2023-03-23T21:11:46.371Z,2.93
2023-03-23T21:14:14.019Z,3.23
2023-03-23T21:16:41.888Z,2.70
2023-03-23T21:19:09.836Z,3.00
2023-03-23T21:21:37.268Z,2.40
2023-03-23T21:24:04.512Z,3.47
2023-03-23T21:26:31.552Z,2.63
2023-03-23T21:29:01.648Z,2.63
2023-03-23T21:31:30.663Z,3.00
2023-03-23T21:34:01.441Z,3.33
2023-03-23T21:36:29.232Z,2.90
2023-03-23T21:38:57.186Z,2.60
2023-03-23T21:41:24.839Z,2.90
2023-03-23T21:43:52.141Z,3.10
2023-03-23T21:46:19.581Z,2.97
2023-03-23T21:48:51.640Z,2.93
2023-03-23T21:51:29.867Z,3.47
2023-03-23T21:53:57.946Z,3.10
2023-03-23T21:56:29.948Z,2.67
2023-03-23T21:58:57.486Z,3.33
2023-03-23T22:01:24.925Z,2.90
2023-03-23T22:03:52.041Z,3.53
2023-03-23T22:06:24.953Z,3.20
2023-03-23T22:08:53.005Z,3.20
2023-03-23T22:11:28.610Z,3.10
2023-03-23T22:13:58.566Z,3.67
2023-03-23T22:16:26.646Z,3.27
2023-03-23T22:18:55.470Z,3.17
2023-03-23T22:21:27.661Z,3.03
2023-03-23T22:23:58.879Z,3.83
2023-03-23T22:26:27.745Z,3.50
2023-03-23T22:28:55.894Z,3.13
2023-03-23T22:31:27.495Z,3.30
2023-03-23T22:33:56.613Z,2.80
2023-03-23T22:36:25.924Z,2.87
2023-03-23T22:38:55.032Z,3.63
2023-03-23T22:41:32.916Z,3.30
2023-03-23T22:44:00.234Z,3.50
2023-03-23T22:46:27.588Z,3.23
2023-03-23T22:48:54.860Z,3.60
2023-03-23T22:51:22.828Z,2.50
2023-03-23T22:53:51.252Z,3.13
2023-03-23T22:56:19.113Z,3.03
2023-03-23T22:58:46.466Z,3.07
2023-03-23T23:01:20.673Z,2.50
2023-03-23T23:03:48.704Z,3.33
2023-03-23T23:06:17.770Z,2.87
2023-03-23T23:08:46.222Z,2.93
2023-03-23T23:11:16.348Z,2.50
2023-03-23T23:13:43.931Z,2.90
2023-03-23T23:16:14.147Z,2.63
2023-03-23T23:18:41.844Z,2.90
2023-03-23T23:21:14.155Z,2.83
2023-03-23T23:23:41.547Z,2.47
2023-03-23T23:26:09.451Z,2.63
2023-03-23T23:28:36.920Z,2.57
2023-03-23T23:31:06.410Z,2.40
2023-03-23T23:33:33.642Z,2.47
2023-03-23T23:36:01.654Z,2.50
2023-03-23T23:38:28.828Z,2.10
2023-03-23T23:40:55.846Z,2.20
2023-03-23T23:43:22.894Z,2.50
2023-03-23T23:45:49.974Z,2.47
2023-03-23T23:48:17.331Z,2.47
2023-03-23T23:50:44.603Z,2.67
2023-03-23T23:53:12.993Z,2.50
2023-03-23T23:55:40.526Z,2.63
2023-03-23T23:58:07.762Z,2.60
